sensor_id;sensor_type;location;lat;lon;timestamp;pressure;altitude;pressure_sealevel;temperature;humidity
69630;BME280;56857;52.212;5.496;2023-02-28T00:01:52;103246.13;;;2.68;100.00
69630;BME280;56857;52.212;5.496;2023-02-28T00:04:17;103251.38;;;2.68;100.00
69630;BME280;56857;52.212;5.496;2023-02-28T00:06:44;103253.22;;;2.65;100.00
69630;BME280;56857;52.212;5.496;2023-02-28T00:09:17;103253.19;;;2.66;100.00
69630;BME280;56857;52.212;5.496;2023-02-28T00:11:43;103262.75;;;2.67;100.00
69630;BME280;56857;52.212;5.496;2023-02-28T00:14:09;103259.22;;;2.68;100.00
69630;BME280;56857;52.212;5.496;2023-02-28T00:16:34;103254.75;;;2.70;100.00
69630;BME280;56857;52.212;5.496;2023-02-28T00:19:00;103260.94;;;2.69;100.00
69630;BME280;56857;52.212;5.496;2023-02-28T00:21:26;103254.88;;;2.67;100.00
69630;BME280;56857;52.212;5.496;2023-02-28T00:23:52;103255.00;;;2.64;100.00
69630;BME280;56857;52.212;5.496;2023-02-28T00:26:17;103257.72;;;2.61;100.00
69630;BME280;56857;52.212;5.496;2023-02-28T00:28:42;103254.22;;;2.62;100.00
69630;BME280;56857;52.212;5.496;2023-02-28T00:31:16;103249.03;;;2.61;100.00
69630;BME280;56857;52.212;5.496;2023-02-28T00:33:41;103255.00;;;2.64;100.00
69630;BME280;56857;52.212;5.496;2023-02-28T00:36:08;103254.09;;;2.65;100.00
69630;BME280;56857;52.212;5.496;2023-02-28T00:38:37;103247.09;;;2.66;100.00
69630;BME280;56857;52.212;5.496;2023-02-28T00:41:09;103247.22;;;2.63;100.00
69630;BME280;56857;52.212;5.496;2023-02-28T00:43:35;103255.06;;;2.63;100.00
69630;BME280;56857;52.212;5.496;2023-02-28T00:46:04;103247.16;;;2.64;100.00
69630;BME280;56857;52.212;5.496;2023-02-28T00:48:31;103247.84;;;2.69;100.00
69630;BME280;56857;52.212;5.496;2023-02-28T00:50:58;103244.13;;;2.75;100.00
69630;BME280;56857;52.212;5.496;2023-02-28T00:53:23;103243.22;;;2.76;100.00
69630;BME280;56857;52.212;5.496;2023-02-28T00:55:50;103250.16;;;2.77;100.00
69630;BME280;56857;52.212;5.496;2023-02-28T00:58:17;103244.78;;;2.80;100.00
69630;BME280;56857;52.212;5.496;2023-02-28T01:00:45;103252.59;;;2.82;100.00
69630;BME280;56857;52.212;5.496;2023-02-28T01:03:10;103250.75;;;2.84;100.00
69630;BME280;56857;52.212;5.496;2023-02-28T01:05:36;103248.13;;;2.84;100.00
69630;BME280;56857;52.212;5.496;2023-02-28T01:08:01;103249.91;;;2.83;100.00
69630;BME280;56857;52.212;5.496;2023-02-28T01:10:27;103249.06;;;2.83;100.00
69630;BME280;56857;52.212;5.496;2023-02-28T01:12:53;103253.25;;;2.87;100.00
69630;BME280;56857;52.212;5.496;2023-02-28T01:15:18;103250.50;;;2.90;100.00
69630;BME280;56857;52.212;5.496;2023-02-28T01:17:44;103248.78;;;2.90;100.00
69630;BME280;56857;52.212;5.496;2023-02-28T01:20:11;103248.69;;;2.92;100.00
69630;BME280;56857;52.212;5.496;2023-02-28T01:22:39;103245.28;;;2.90;100.00
69630;BME280;56857;52.212;5.496;2023-02-28T01:25:05;103243.59;;;2.89;100.00
69630;BME280;56857;52.212;5.496;2023-02-28T01:27:30;103246.28;;;2.87;100.00
69630;BME280;56857;52.212;5.496;2023-02-28T01:29:55;103236.69;;;2.86;100.00
69630;BME280;56857;52.212;5.496;2023-02-28T01:32:21;103241.75;;;2.91;100.00
69630;BME280;56857;52.212;5.496;2023-02-28T01:34:46;103232.84;;;2.95;100.00
69630;BME280;56857;52.212;5.496;2023-02-28T01:37:11;103239.91;;;2.93;100.00
69630;BME280;56857;52.212;5.496;2023-02-28T01:39:37;103245.13;;;2.94;100.00
69630;BME280;56857;52.212;5.496;2023-02-28T01:42:02;103242.50;;;2.94;100.00
69630;BME280;56857;52.212;5.496;2023-02-28T01:47:39;103246.41;;;2.84;100.00
69630;BME280;56857;52.212;5.496;2023-02-28T01:50:10;103244.66;;;2.83;100.00
69630;BME280;56857;52.212;5.496;2023-02-28T01:52:37;103241.09;;;2.86;100.00
69630;BME280;56857;52.212;5.496;2023-02-28T01:55:06;103228.91;;;2.85;100.00
69630;BME280;56857;52.212;5.496;2023-02-28T01:57:35;103226.31;;;2.83;100.00
69630;BME280;56857;52.212;5.496;2023-02-28T02:00:07;103222.81;;;2.84;100.00
69630;BME280;56857;52.212;5.496;2023-02-28T02:02:34;103216.59;;;2.87;100.00
69630;BME280;56857;52.212;5.496;2023-02-28T02:05:03;103220.97;;;2.86;100.00
69630;BME280;56857;52.212;5.496;2023-02-28T02:07:32;103215.59;;;2.89;100.00
69630;BME280;56857;52.212;5.496;2023-02-28T02:13:08;103225.13;;;2.92;100.00
69630;BME280;56857;52.212;5.496;2023-02-28T02:15:44;103216.41;;;2.91;100.00
69630;BME280;56857;52.212;5.496;2023-02-28T02:18:35;103220.84;;;2.89;100.00
69630;BME280;56857;52.212;5.496;2023-02-28T02:27:48;103217.09;;;2.96;100.00
69630;BME280;56857;52.212;5.496;2023-02-28T02:38:30;103209.03;;;3.01;100.00
69630;BME280;56857;52.212;5.496;2023-02-28T02:41:10;103213.22;;;3.05;100.00
69630;BME280;56857;52.212;5.496;2023-02-28T02:43:56;103215.94;;;3.04;100.00
69630;BME280;56857;52.212;5.496;2023-02-28T02:46:28;103215.31;;;2.97;100.00
69630;BME280;56857;52.212;5.496;2023-02-28T02:48:56;103218.72;;;2.99;100.00
69630;BME280;56857;52.212;5.496;2023-02-28T02:51:24;103212.59;;;3.00;100.00
69630;BME280;56857;52.212;5.496;2023-02-28T02:53:58;103213.34;;;3.02;100.00
69630;BME280;56857;52.212;5.496;2023-02-28T02:56:28;103206.41;;;3.01;100.00
69630;BME280;56857;52.212;5.496;2023-02-28T02:58:58;103205.50;;;3.02;100.00
69630;BME280;56857;52.212;5.496;2023-02-28T03:01:26;103213.19;;;3.07;100.00
69630;BME280;56857;52.212;5.496;2023-02-28T03:03:52;103210.31;;;3.13;100.00
69630;BME280;56857;52.212;5.496;2023-02-28T03:06:17;103211.97;;;3.15;100.00
69630;BME280;56857;52.212;5.496;2023-02-28T03:08:42;103213.78;;;3.13;100.00
69630;BME280;56857;52.212;5.496;2023-02-28T03:11:12;103215.47;;;3.14;100.00
69630;BME280;56857;52.212;5.496;2023-02-28T03:13:48;103212.69;;;3.19;100.00
69630;BME280;56857;52.212;5.496;2023-02-28T03:24:33;103218.44;;;3.27;100.00
69630;BME280;56857;52.212;5.496;2023-02-28T03:29:49;103217.69;;;3.25;100.00
69630;BME280;56857;52.212;5.496;2023-02-28T03:32:33;103215.78;;;3.29;100.00
69630;BME280;56857;52.212;5.496;2023-02-28T03:35:10;103220.03;;;3.31;100.00
69630;BME280;56857;52.212;5.496;2023-02-28T03:37:41;103218.16;;;3.35;100.00
69630;BME280;56857;52.212;5.496;2023-02-28T03:40:14;103220.16;;;3.28;100.00
69630;BME280;56857;52.212;5.496;2023-02-28T03:42:44;103223.88;;;3.22;100.00
69630;BME280;56857;52.212;5.496;2023-02-28T03:45:16;103227.38;;;3.23;100.00
69630;BME280;56857;52.212;5.496;2023-02-28T03:50:40;103235.16;;;3.24;100.00
69630;BME280;56857;52.212;5.496;2023-02-28T03:53:15;103235.16;;;3.24;100.00
69630;BME280;56857;52.212;5.496;2023-02-28T03:56:01;103229.06;;;3.24;100.00
69630;BME280;56857;52.212;5.496;2023-02-28T03:58:55;103229.91;;;3.24;100.00
69630;BME280;56857;52.212;5.496;2023-02-28T04:01:33;103231.63;;;3.25;100.00
69630;BME280;56857;52.212;5.496;2023-02-28T04:04:00;103232.47;;;3.26;100.00
69630;BME280;56857;52.212;5.496;2023-02-28T04:06:25;103232.47;;;3.26;100.00
69630;BME280;56857;52.212;5.496;2023-02-28T04:08:51;103228.03;;;3.28;100.00
69630;BME280;56857;52.212;5.496;2023-02-28T04:11:23;103237.50;;;3.31;100.00
69630;BME280;56857;52.212;5.496;2023-02-28T04:13:51;103236.03;;;3.25;100.00
69630;BME280;56857;52.212;5.496;2023-02-28T04:16:18;103231.69;;;3.24;100.00
69630;BME280;56857;52.212;5.496;2023-02-28T04:18:44;103232.53;;;3.24;100.00
69630;BME280;56857;52.212;5.496;2023-02-28T04:21:11;103233.53;;;3.22;100.00
69630;BME280;56857;52.212;5.496;2023-02-28T04:23:36;103234.41;;;3.21;100.00
69630;BME280;56857;52.212;5.496;2023-02-28T04:26:03;103238.91;;;3.19;100.00
69630;BME280;56857;52.212;5.496;2023-02-28T04:28:29;103241.63;;;3.16;100.00
69630;BME280;56857;52.212;5.496;2023-02-28T04:30:56;103245.34;;;3.10;100.00
69630;BME280;56857;52.212;5.496;2023-02-28T04:33:22;103246.41;;;3.06;100.00
69630;BME280;56857;52.212;5.496;2023-02-28T04:35:47;103241.41;;;3.00;100.00
69630;BME280;56857;52.212;5.496;2023-02-28T04:38:12;103241.53;;;2.97;100.00
69630;BME280;56857;52.212;5.496;2023-02-28T04:40:37;103247.66;;;2.96;100.00
69630;BME280;56857;52.212;5.496;2023-02-28T04:43:03;103240.00;;;2.91;100.00
69630;BME280;56857;52.212;5.496;2023-02-28T04:45:28;103242.72;;;2.88;100.00
69630;BME280;56857;52.212;5.496;2023-02-28T04:47:54;103240.28;;;2.84;100.00
69630;BME280;56857;52.212;5.496;2023-02-28T04:50:19;103235.22;;;2.79;100.00
69630;BME280;56857;52.212;5.496;2023-02-28T04:52:44;103237.28;;;2.71;100.00
69630;BME280;56857;52.212;5.496;2023-02-28T04:55:10;103234.13;;;2.63;100.00
69630;BME280;56857;52.212;5.496;2023-02-28T04:57:35;103230.03;;;2.55;100.00
69630;BME280;56857;52.212;5.496;2023-02-28T05:00:00;103238.16;;;2.48;100.00
69630;BME280;56857;52.212;5.496;2023-02-28T05:02:26;103232.19;;;2.44;100.00
69630;BME280;56857;52.212;5.496;2023-02-28T05:04:51;103235.84;;;2.40;100.00
69630;BME280;56857;52.212;5.496;2023-02-28T05:07:16;103234.25;;;2.36;100.00
69630;BME280;56857;52.212;5.496;2023-02-28T05:09:41;103237.84;;;2.34;100.00
69630;BME280;56857;52.212;5.496;2023-02-28T05:12:08;103235.47;;;2.27;100.00
69630;BME280;56857;52.212;5.496;2023-02-28T05:14:34;103237.38;;;2.22;100.00
69630;BME280;56857;52.212;5.496;2023-02-28T05:16:59;103239.38;;;2.16;100.00
69630;BME280;56857;52.212;5.496;2023-02-28T05:19:24;103248.19;;;2.13;100.00
69630;BME280;56857;52.212;5.496;2023-02-28T05:21:52;103243.06;;;2.10;100.00
69630;BME280;56857;52.212;5.496;2023-02-28T05:24:19;103242.53;;;2.00;100.00
69630;BME280;56857;52.212;5.496;2023-02-28T05:26:44;103243.59;;;1.95;100.00
69630;BME280;56857;52.212;5.496;2023-02-28T05:29:09;103251.56;;;1.92;100.00
69630;BME280;56857;52.212;5.496;2023-02-28T05:31:35;103247.44;;;1.84;100.00
69630;BME280;56857;52.212;5.496;2023-02-28T05:34:02;103247.56;;;1.81;100.00
69630;BME280;56857;52.212;5.496;2023-02-28T05:36:27;103245.88;;;1.80;100.00
69630;BME280;56857;52.212;5.496;2023-02-28T05:38:52;103246.75;;;1.79;100.00
69630;BME280;56857;52.212;5.496;2023-02-28T05:41:18;103248.50;;;1.79;100.00
69630;BME280;56857;52.212;5.496;2023-02-28T05:43:44;103247.66;;;1.78;100.00
69630;BME280;56857;52.212;5.496;2023-02-28T05:46:11;103254.66;;;1.78;100.00
69630;BME280;56857;52.212;5.496;2023-02-28T05:48:39;103253.06;;;1.74;100.00
69630;BME280;56857;52.212;5.496;2023-02-28T05:51:06;103253.22;;;1.69;100.00
69630;BME280;56857;52.212;5.496;2023-02-28T05:53:32;103250.69;;;1.66;100.00
69630;BME280;56857;52.212;5.496;2023-02-28T05:55:57;103263.88;;;1.63;100.00
69630;BME280;56857;52.212;5.496;2023-02-28T05:58:23;103254.22;;;1.65;100.00
69630;BME280;56857;52.212;5.496;2023-02-28T06:00:49;103258.59;;;1.65;100.00
69630;BME280;56857;52.212;5.496;2023-02-28T06:03:14;103254.88;;;1.72;100.00
69630;BME280;56857;52.212;5.496;2023-02-28T06:05:39;103251.19;;;1.77;100.00
69630;BME280;56857;52.212;5.496;2023-02-28T06:08:04;103251.03;;;1.82;100.00
69630;BME280;56857;52.212;5.496;2023-02-28T06:10:30;103256.16;;;1.85;100.00
69630;BME280;56857;52.212;5.496;2023-02-28T06:12:55;103257.75;;;1.89;100.00
69630;BME280;56857;52.212;5.496;2023-02-28T06:15:20;103248.94;;;1.92;100.00
69630;BME280;56857;52.212;5.496;2023-02-28T06:17:46;103248.91;;;1.93;100.00
69630;BME280;56857;52.212;5.496;2023-02-28T06:20:11;103249.69;;;1.95;100.00
69630;BME280;56857;52.212;5.496;2023-02-28T06:22:37;103247.84;;;1.99;100.00
69630;BME280;56857;52.212;5.496;2023-02-28T06:25:03;103242.53;;;2.00;100.00
69630;BME280;56857;52.212;5.496;2023-02-28T06:27:28;103250.38;;;2.00;100.00
69630;BME280;56857;52.212;5.496;2023-02-28T06:29:55;103255.63;;;2.00;100.00
69630;BME280;56857;52.212;5.496;2023-02-28T06:32:21;103252.03;;;2.03;100.00
69630;BME280;56857;52.212;5.496;2023-02-28T06:34:47;103245.03;;;2.03;100.00
69630;BME280;56857;52.212;5.496;2023-02-28T06:37:12;103255.41;;;2.06;100.00
69630;BME280;56857;52.212;5.496;2023-02-28T06:39:37;103258.88;;;2.07;100.00
69630;BME280;56857;52.212;5.496;2023-02-28T06:42:03;103249.34;;;2.04;100.00
69630;BME280;56857;52.212;5.496;2023-02-28T06:44:28;103249.34;;;2.04;100.00
69630;BME280;56857;52.212;5.496;2023-02-28T06:46:53;103252.78;;;2.06;100.00
69630;BME280;56857;52.212;5.496;2023-02-28T06:49:19;103246.63;;;2.07;100.00
69630;BME280;56857;52.212;5.496;2023-02-28T06:51:44;103246.75;;;2.04;100.00
69630;BME280;56857;52.212;5.496;2023-02-28T06:54:11;103251.09;;;2.05;100.00
69630;BME280;56857;52.212;5.496;2023-02-28T06:56:37;103246.59;;;2.09;100.00
69630;BME280;56857;52.212;5.496;2023-02-28T06:59:03;103260.53;;;2.09;100.00
69630;BME280;56857;52.212;5.496;2023-02-28T07:01:29;103259.78;;;2.06;100.00
69630;BME280;56857;52.212;5.496;2023-02-28T07:03:54;103266.03;;;2.02;100.00
69630;BME280;56857;52.212;5.496;2023-02-28T07:06:21;103272.00;;;2.05;100.00
69630;BME280;56857;52.212;5.496;2023-02-28T07:08:46;103262.28;;;2.09;100.00
69630;BME280;56857;52.212;5.496;2023-02-28T07:11:12;103265.66;;;2.13;100.00
69630;BME280;56857;52.212;5.496;2023-02-28T07:13:38;103268.31;;;2.11;100.00
69630;BME280;56857;52.212;5.496;2023-02-28T07:16:05;103272.78;;;2.07;100.00
69630;BME280;56857;52.212;5.496;2023-02-28T07:18:32;103270.13;;;2.09;100.00
69630;BME280;56857;52.212;5.496;2023-02-28T07:20:57;103272.56;;;2.14;100.00
69630;BME280;56857;52.212;5.496;2023-02-28T07:23:26;103271.69;;;2.15;100.00
69630;BME280;56857;52.212;5.496;2023-02-28T07:25:51;103271.50;;;2.19;100.00
69630;BME280;56857;52.212;5.496;2023-02-28T07:28:16;103269.69;;;2.21;100.00
69630;BME280;56857;52.212;5.496;2023-02-28T07:30:41;103260.81;;;2.25;100.00
69630;BME280;56857;52.212;5.496;2023-02-28T07:33:07;103267.81;;;2.25;100.00
69630;BME280;56857;52.212;5.496;2023-02-28T07:35:33;103270.38;;;2.26;100.00
69630;BME280;56857;52.212;5.496;2023-02-28T07:37:59;103281.66;;;2.28;100.00
69630;BME280;56857;52.212;5.496;2023-02-28T07:40:24;103285.84;;;2.32;100.00
69630;BME280;56857;52.212;5.496;2023-02-28T07:42:50;103276.44;;;2.27;100.00
69630;BME280;56857;52.212;5.496;2023-02-28T07:45:15;103290.75;;;2.18;100.00
69630;BME280;56857;52.212;5.496;2023-02-28T07:47:41;103296.75;;;2.20;100.00
69630;BME280;56857;52.212;5.496;2023-02-28T07:50:09;103282.41;;;2.07;100.00
69630;BME280;56857;52.212;5.496;2023-02-28T07:52:37;103268.81;;;1.97;100.00
69630;BME280;56857;52.212;5.496;2023-02-28T07:55:03;103279.22;;;1.99;100.00
69630;BME280;56857;52.212;5.496;2023-02-28T07:57:28;103273.94;;;2.00;100.00
69630;BME280;56857;52.212;5.496;2023-02-28T07:59:53;103284.34;;;2.02;100.00
69630;BME280;56857;52.212;5.496;2023-02-28T08:02:19;103290.38;;;2.04;100.00
69630;BME280;56857;52.212;5.496;2023-02-28T08:04:44;103284.56;;;1.96;100.00
69630;BME280;56857;52.212;5.496;2023-02-28T08:07:12;103284.47;;;1.99;100.00
69630;BME280;56857;52.212;5.496;2023-02-28T08:09:38;103288.59;;;2.04;100.00
69630;BME280;56857;52.212;5.496;2023-02-28T08:12:07;103301.34;;;2.14;100.00
69630;BME280;56857;52.212;5.496;2023-02-28T08:14:33;103308.94;;;2.21;100.00
69630;BME280;56857;52.212;5.496;2023-02-28T08:16:58;103312.34;;;2.23;100.00
69630;BME280;56857;52.212;5.496;2023-02-28T08:19:23;103308.00;;;2.24;100.00
69630;BME280;56857;52.212;5.496;2023-02-28T08:21:49;103308.00;;;2.24;100.00
69630;BME280;56857;52.212;5.496;2023-02-28T08:24:14;103316.59;;;2.27;100.00
69630;BME280;56857;52.212;5.496;2023-02-28T08:26:39;103308.75;;;2.27;100.00
69630;BME280;56857;52.212;5.496;2023-02-28T08:29:04;103309.47;;;2.31;100.00
69630;BME280;56857;52.212;5.496;2023-02-28T08:31:30;103312.88;;;2.33;100.00
69630;BME280;56857;52.212;5.496;2023-02-28T08:33:55;103311.13;;;2.34;100.00
69630;BME280;56857;52.212;5.496;2023-02-28T08:36:20;103300.56;;;2.37;100.00
69630;BME280;56857;52.212;5.496;2023-02-28T08:38:46;103313.53;;;2.40;100.00
69630;BME280;56857;52.212;5.496;2023-02-28T08:41:12;103305.56;;;2.43;100.00
69630;BME280;56857;52.212;5.496;2023-02-28T08:43:40;103289.69;;;2.47;100.00
69630;BME280;56857;52.212;5.496;2023-02-28T08:46:07;103289.34;;;2.57;100.00
69630;BME280;56857;52.212;5.496;2023-02-28T08:48:34;103305.75;;;2.62;100.00
69630;BME280;56857;52.212;5.496;2023-02-28T08:51:13;103305.56;;;2.66;100.00
69630;BME280;56857;52.212;5.496;2023-02-28T08:53:39;103305.38;;;2.71;100.00
69630;BME280;56857;52.212;5.496;2023-02-28T08:56:09;103294.84;;;2.72;100.00
69630;BME280;56857;52.212;5.496;2023-02-28T08:58:35;103304.19;;;2.79;100.00
69630;BME280;56857;52.212;5.496;2023-02-28T09:01:08;103298.78;;;2.84;100.00
69630;BME280;56857;52.212;5.496;2023-02-28T09:03:33;103295.16;;;2.87;100.00
69630;BME280;56857;52.212;5.496;2023-02-28T09:06:00;103304.56;;;2.92;100.00
69630;BME280;56857;52.212;5.496;2023-02-28T09:08:28;103306.94;;;2.98;100.00
69630;BME280;56857;52.212;5.496;2023-02-28T09:10:54;103307.56;;;3.05;100.00
69630;BME280;56857;52.212;5.496;2023-02-28T09:13:20;103308.16;;;3.12;100.00
69630;BME280;56857;52.212;5.496;2023-02-28T09:15:46;103308.00;;;3.16;100.00
69630;BME280;56857;52.212;5.496;2023-02-28T09:18:11;103301.44;;;3.28;100.00
69630;BME280;56857;52.212;5.496;2023-02-28T09:20:39;103300.75;;;3.45;100.00
69630;BME280;56857;52.212;5.496;2023-02-28T09:23:04;103295.59;;;3.64;100.00
69630;BME280;56857;52.212;5.496;2023-02-28T09:25:29;103303.16;;;3.92;100.00
69630;BME280;56857;52.212;5.496;2023-02-28T09:27:55;103296.63;;;4.21;100.00
69630;BME280;56857;52.212;5.496;2023-02-28T09:30:20;103298.38;;;4.41;100.00
69630;BME280;56857;52.212;5.496;2023-02-28T09:32:47;103301.66;;;4.46;100.00
69630;BME280;56857;52.212;5.496;2023-02-28T09:35:16;103299.13;;;4.63;100.00
69630;BME280;56857;52.212;5.496;2023-02-28T09:37:41;103298.81;;;4.88;100.00
69630;BME280;56857;52.212;5.496;2023-02-28T09:40:10;103309.41;;;5.06;100.00
69630;BME280;56857;52.212;5.496;2023-02-28T09:42:36;103301.06;;;5.15;100.00
69630;BME280;56857;52.212;5.496;2023-02-28T09:45:06;103295.13;;;5.11;100.00
69630;BME280;56857;52.212;5.496;2023-02-28T09:47:40;103303.44;;;5.02;100.00
69630;BME280;56857;52.212;5.496;2023-02-28T09:52:52;103305.56;;;4.94;100.00
69630;BME280;56857;52.212;5.496;2023-02-28T09:55:41;103312.81;;;4.89;100.00
69630;BME280;56857;52.212;5.496;2023-02-28T09:58:30;103309.41;;;4.87;100.00
69630;BME280;56857;52.212;5.496;2023-02-28T10:06:26;103299.47;;;4.75;98.66
69630;BME280;56857;52.212;5.496;2023-02-28T10:09:08;103306.69;;;4.70;97.63
69630;BME280;56857;52.212;5.496;2023-02-28T10:11:37;103298.38;;;4.79;88.63
69630;BME280;56857;52.212;5.496;2023-02-28T10:14:26;103304.44;;;4.81;89.31
69630;BME280;56857;52.212;5.496;2023-02-28T10:17:19;103297.63;;;4.96;92.58
69630;BME280;56857;52.212;5.496;2023-02-28T10:20:00;103294.38;;;5.27;95.50
69630;BME280;56857;52.212;5.496;2023-02-28T10:22:34;103293.44;;;5.45;94.64
69630;BME280;56857;52.212;5.496;2023-02-28T10:25:04;103292.06;;;5.73;96.67
69630;BME280;56857;52.212;5.496;2023-02-28T10:27:31;103284.44;;;6.03;98.14
69630;BME280;56857;52.212;5.496;2023-02-28T10:30:02;103284.09;;;6.42;84.75
69630;BME280;56857;52.212;5.496;2023-02-28T10:32:35;103292.19;;;6.55;84.83
69630;BME280;56857;52.212;5.496;2023-02-28T10:37:47;103287.81;;;7.19;82.92
69630;BME280;56857;52.212;5.496;2023-02-28T10:43:05;103292.47;;;7.60;80.40
69630;BME280;56857;52.212;5.496;2023-02-28T10:45:39;103286.53;;;7.40;83.12
69630;BME280;56857;52.212;5.496;2023-02-28T10:56:03;103273.66;;;7.66;61.80
69630;BME280;56857;52.212;5.496;2023-02-28T11:03:51;103259.84;;;6.85;66.72
69630;BME280;56857;52.212;5.496;2023-02-28T11:06:23;103263.50;;;6.82;69.35
69630;BME280;56857;52.212;5.496;2023-02-28T11:08:55;103257.19;;;7.01;77.41
69630;BME280;56857;52.212;5.496;2023-02-28T11:11:22;103252.78;;;7.61;76.01
69630;BME280;56857;52.212;5.496;2023-02-28T11:13:52;103244.72;;;7.79;71.96
69630;BME280;56857;52.212;5.496;2023-02-28T11:16:45;103248.38;;;7.76;63.48
69630;BME280;56857;52.212;5.496;2023-02-28T11:19:19;103247.72;;;7.73;66.16
69630;BME280;56857;52.212;5.496;2023-02-28T11:21:55;103252.56;;;8.38;72.99
69630;BME280;56857;52.212;5.496;2023-02-28T11:24:30;103246.41;;;8.66;63.67
69630;BME280;56857;52.212;5.496;2023-02-28T11:26:57;103248.53;;;8.46;60.73
69630;BME280;56857;52.212;5.496;2023-02-28T11:29:30;103258.03;;;8.34;59.03
69630;BME280;56857;52.212;5.496;2023-02-28T11:32:20;103244.47;;;7.98;53.27
69630;BME280;56857;52.212;5.496;2023-02-28T11:35:00;103235.72;;;7.67;53.64
69630;BME280;56857;52.212;5.496;2023-02-28T11:37:28;103246.56;;;7.62;55.22
69630;BME280;56857;52.212;5.496;2023-02-28T11:39:55;103235.81;;;7.65;54.07
69630;BME280;56857;52.212;5.496;2023-02-28T11:42:35;103235.69;;;7.53;54.31
69630;BME280;56857;52.212;5.496;2023-02-28T11:47:56;103230.56;;;8.37;62.80
69630;BME280;56857;52.212;5.496;2023-02-28T11:50:45;103233.41;;;8.34;52.47
69630;BME280;56857;52.212;5.496;2023-02-28T11:53:50;103233.13;;;8.24;56.56
69630;BME280;56857;52.212;5.496;2023-02-28T11:56:27;103232.81;;;8.29;52.77
69630;BME280;56857;52.212;5.496;2023-02-28T12:02:25;103220.47;;;8.15;52.44
69630;BME280;56857;52.212;5.496;2023-02-28T12:04:59;103224.91;;;8.85;57.45
69630;BME280;56857;52.212;5.496;2023-02-28T12:10:21;103216.31;;;9.99;49.73
69630;BME280;56857;52.212;5.496;2023-02-28T12:15:56;103213.25;;;9.80;50.51
69630;BME280;56857;52.212;5.496;2023-02-28T12:18:42;103200.41;;;9.86;49.78
69630;BME280;56857;52.212;5.496;2023-02-28T12:21:20;103203.34;;;10.20;47.01
69630;BME280;56857;52.212;5.496;2023-02-28T12:26:51;103202.06;;;10.75;44.22
69630;BME280;56857;52.212;5.496;2023-02-28T12:29:27;103202.91;;;10.76;46.26
69630;BME280;56857;52.212;5.496;2023-02-28T12:32:05;103189.41;;;10.55;45.77
69630;BME280;56857;52.212;5.496;2023-02-28T12:34:35;103195.19;;;10.36;44.68
69630;BME280;56857;52.212;5.496;2023-02-28T12:37:07;103194.22;;;10.24;42.01
69630;BME280;56857;52.212;5.496;2023-02-28T12:39:41;103196.22;;;9.84;40.20
69630;BME280;56857;52.212;5.496;2023-02-28T12:42:19;103190.78;;;9.72;42.15
69630;BME280;56857;52.212;5.496;2023-02-28T12:44:55;103200.34;;;9.75;41.61
69630;BME280;56857;52.212;5.496;2023-02-28T12:47:22;103192.88;;;9.93;41.30
69630;BME280;56857;52.212;5.496;2023-02-28T12:49:58;103182.09;;;10.09;43.67
69630;BME280;56857;52.212;5.496;2023-02-28T12:52:39;103178.97;;;10.64;42.43
69630;BME280;56857;52.212;5.496;2023-02-28T12:55:55;103179.41;;;10.82;41.68
69630;BME280;56857;52.212;5.496;2023-02-28T12:58:39;103176.31;;;10.88;42.17
69630;BME280;56857;52.212;5.496;2023-02-28T13:09:41;103172.78;;;11.12;38.05
69630;BME280;56857;52.212;5.496;2023-02-28T13:12:16;103161.69;;;10.83;38.35
69630;BME280;56857;52.212;5.496;2023-02-28T13:14:42;103171.78;;;11.02;40.02
69630;BME280;56857;52.212;5.496;2023-02-28T13:19:35;103160.84;;;10.34;37.67
69630;BME280;56857;52.212;5.496;2023-02-28T13:22:02;103166.19;;;9.96;38.65
69630;BME280;56857;52.212;5.496;2023-02-28T13:24:41;103161.78;;;9.84;39.79
69630;BME280;56857;52.212;5.496;2023-02-28T13:29:41;103162.72;;;9.70;40.50
69630;BME280;56857;52.212;5.496;2023-02-28T13:34:38;103163.00;;;9.14;40.56
69630;BME280;56857;52.212;5.496;2023-02-28T13:39:51;103149.41;;;8.66;40.24
69630;BME280;56857;52.212;5.496;2023-02-28T13:42:30;103145.72;;;8.69;43.49
69630;BME280;56857;52.212;5.496;2023-02-28T13:47:30;103147.31;;;8.44;41.77
69630;BME280;56857;52.212;5.496;2023-02-28T13:58:50;103133.78;;;7.36;44.02
69630;BME280;56857;52.212;5.496;2023-02-28T14:02:07;103133.84;;;7.20;46.43
69630;BME280;56857;52.212;5.496;2023-02-28T14:05:17;103136.19;;;7.10;45.76
69630;BME280;56857;52.212;5.496;2023-02-28T14:07:51;103128.34;;;7.09;46.62
69630;BME280;56857;52.212;5.496;2023-02-28T14:10:27;103127.88;;;7.02;46.87
69630;BME280;56857;52.212;5.496;2023-02-28T14:13:00;103120.06;;;7.01;48.00
69630;BME280;56857;52.212;5.496;2023-02-28T14:15:49;103126.59;;;7.09;50.23
69630;BME280;56857;52.212;5.496;2023-02-28T14:20:47;103126.88;;;7.19;50.33
69630;BME280;56857;52.212;5.496;2023-02-28T14:23:26;103127.38;;;7.26;49.62
69630;BME280;56857;52.212;5.496;2023-02-28T14:29:10;103127.34;;;6.81;46.69
69630;BME280;56857;52.212;5.496;2023-02-28T14:31:58;103121.06;;;6.68;45.92
69630;BME280;56857;52.212;5.496;2023-02-28T14:34:58;103113.19;;;6.52;46.85
69630;BME280;56857;52.212;5.496;2023-02-28T14:37:30;103116.44;;;6.41;48.52
69630;BME280;56857;52.212;5.496;2023-02-28T14:39:58;103111.34;;;6.38;46.71
69630;BME280;56857;52.212;5.496;2023-02-28T14:42:32;103108.03;;;6.35;47.71
69630;BME280;56857;52.212;5.496;2023-02-28T14:44:58;103110.56;;;6.36;48.53
69630;BME280;56857;52.212;5.496;2023-02-28T14:47:27;103110.38;;;6.39;49.25
69630;BME280;56857;52.212;5.496;2023-02-28T14:49:54;103108.03;;;6.35;49.07
69630;BME280;56857;52.212;5.496;2023-02-28T14:52:24;103109.72;;;6.36;49.27
69630;BME280;56857;52.212;5.496;2023-02-28T14:54:57;103112.94;;;6.41;47.88
69630;BME280;56857;52.212;5.496;2023-02-28T14:57:29;103107.25;;;6.33;47.55
69630;BME280;56857;52.212;5.496;2023-02-28T15:00:00;103113.97;;;6.22;47.04